sensor_id;sensor_type;location;lat;lon;timestamp;P1;durP1;ratioP1;P2;durP2;ratioP2
59976;SDS011;45837;51.076;3.578;2022-12-18T00:01:36;9.00;;;5.78;;
59976;SDS011;45837;51.076;3.578;2022-12-18T00:04:03;9.68;;;5.78;;
59976;SDS011;45837;51.076;3.578;2022-12-18T00:06:30;8.80;;;5.47;;
59976;SDS011;45837;51.076;3.578;2022-12-18T00:08:58;8.18;;;5.93;;
59976;SDS011;45837;51.076;3.578;2022-12-18T00:11:26;7.18;;;5.47;;
59976;SDS011;45837;51.076;3.578;2022-12-18T00:13:54;8.35;;;5.72;;
59976;SDS011;45837;51.076;3.578;2022-12-18T00:16:23;7.13;;;5.32;;
59976;SDS011;45837;51.076;3.578;2022-12-18T00:18:50;7.05;;;5.45;;
59976;SDS011;45837;51.076;3.578;2022-12-18T00:21:18;9.90;;;5.85;;
59976;SDS011;45837;51.076;3.578;2022-12-18T00:23:45;8.18;;;5.60;;
59976;SDS011;45837;51.076;3.578;2022-12-18T00:26:14;7.68;;;5.65;;
59976;SDS011;45837;51.076;3.578;2022-12-18T00:28:57;8.70;;;6.10;;
59976;SDS011;45837;51.076;3.578;2022-12-18T00:31:24;7.75;;;5.85;;
59976;SDS011;45837;51.076;3.578;2022-12-18T00:33:53;7.32;;;5.50;;
59976;SDS011;45837;51.076;3.578;2022-12-18T00:36:22;8.25;;;5.70;;
59976;SDS011;45837;51.076;3.578;2022-12-18T00:38:51;8.40;;;5.80;;
59976;SDS011;45837;51.076;3.578;2022-12-18T00:41:19;7.22;;;4.78;;
59976;SDS011;45837;51.076;3.578;2022-12-18T00:46:30;8.52;;;5.88;;
59976;SDS011;45837;51.076;3.578;2022-12-18T00:48:57;7.53;;;5.57;;
59976;SDS011;45837;51.076;3.578;2022-12-18T00:51:23;8.20;;;5.60;;
59976;SDS011;45837;51.076;3.578;2022-12-18T00:53:50;7.50;;;5.30;;
59976;SDS011;45837;51.076;3.578;2022-12-18T00:56:17;9.10;;;6.13;;
59976;SDS011;45837;51.076;3.578;2022-12-18T00:58:46;7.68;;;5.70;;
59976;SDS011;45837;51.076;3.578;2022-12-18T01:01:12;8.48;;;6.28;;
59976;SDS011;45837;51.076;3.578;2022-12-18T01:03:38;8.00;;;5.72;;
59976;SDS011;45837;51.076;3.578;2022-12-18T01:06:08;7.63;;;5.85;;
59976;SDS011;45837;51.076;3.578;2022-12-18T01:08:36;9.15;;;6.13;;
59976;SDS011;45837;51.076;3.578;2022-12-18T01:11:13;7.82;;;5.63;;
59976;SDS011;45837;51.076;3.578;2022-12-18T01:13:41;8.95;;;6.20;;
59976;SDS011;45837;51.076;3.578;2022-12-18T01:16:08;7.97;;;6.00;;
59976;SDS011;45837;51.076;3.578;2022-12-18T01:18:36;7.45;;;5.63;;
59976;SDS011;45837;51.076;3.578;2022-12-18T01:21:09;9.40;;;5.93;;
59976;SDS011;45837;51.076;3.578;2022-12-18T01:28:56;8.60;;;6.03;;
59976;SDS011;45837;51.076;3.578;2022-12-18T01:31:26;8.18;;;5.80;;
59976;SDS011;45837;51.076;3.578;2022-12-18T01:33:54;8.57;;;6.28;;
59976;SDS011;45837;51.076;3.578;2022-12-18T01:36:22;8.95;;;6.35;;
59976;SDS011;45837;51.076;3.578;2022-12-18T01:38:50;8.13;;;5.85;;
59976;SDS011;45837;51.076;3.578;2022-12-18T01:41:19;7.47;;;5.60;;
59976;SDS011;45837;51.076;3.578;2022-12-18T01:43:52;7.75;;;5.78;;
59976;SDS011;45837;51.076;3.578;2022-12-18T01:46:20;8.50;;;6.05;;
59976;SDS011;45837;51.076;3.578;2022-12-18T01:48:49;8.55;;;6.30;;
59976;SDS011;45837;51.076;3.578;2022-12-18T01:51:19;10.43;;;6.45;;
59976;SDS011;45837;51.076;3.578;2022-12-18T01:53:46;8.52;;;6.30;;
59976;SDS011;45837;51.076;3.578;2022-12-18T01:56:14;8.40;;;5.68;;
59976;SDS011;45837;51.076;3.578;2022-12-18T02:01:25;7.50;;;5.93;;
59976;SDS011;45837;51.076;3.578;2022-12-18T02:03:51;8.95;;;6.07;;
59976;SDS011;45837;51.076;3.578;2022-12-18T02:08:58;8.93;;;6.70;;
59976;SDS011;45837;51.076;3.578;2022-12-18T02:14:17;8.13;;;5.78;;
59976;SDS011;45837;51.076;3.578;2022-12-18T02:22:07;8.82;;;6.30;;
59976;SDS011;45837;51.076;3.578;2022-12-18T02:27:43;7.82;;;6.07;;
59976;SDS011;45837;51.076;3.578;2022-12-18T02:30:12;7.25;;;5.72;;
59976;SDS011;45837;51.076;3.578;2022-12-18T02:32:40;9.23;;;6.30;;
59976;SDS011;45837;51.076;3.578;2022-12-18T02:35:15;8.30;;;6.00;;
59976;SDS011;45837;51.076;3.578;2022-12-18T02:37:47;9.02;;;6.22;;
59976;SDS011;45837;51.076;3.578;2022-12-18T02:40:14;8.40;;;6.20;;
59976;SDS011;45837;51.076;3.578;2022-12-18T02:42:41;8.13;;;5.88;;
59976;SDS011;45837;51.076;3.578;2022-12-18T02:45:10;8.65;;;6.18;;
59976;SDS011;45837;51.076;3.578;2022-12-18T02:47:36;8.75;;;6.63;;
59976;SDS011;45837;51.076;3.578;2022-12-18T02:52:44;8.57;;;6.10;;
59976;SDS011;45837;51.076;3.578;2022-12-18T03:01:15;8.70;;;6.45;;
59976;SDS011;45837;51.076;3.578;2022-12-18T03:03:57;9.23;;;6.22;;
59976;SDS011;45837;51.076;3.578;2022-12-18T03:06:31;9.02;;;6.88;;
59976;SDS011;45837;51.076;3.578;2022-12-18T03:09:07;8.13;;;6.32;;
59976;SDS011;45837;51.076;3.578;2022-12-18T03:11:37;8.60;;;6.60;;
59976;SDS011;45837;51.076;3.578;2022-12-18T03:14:25;8.77;;;5.80;;
59976;SDS011;45837;51.076;3.578;2022-12-18T03:16:57;7.57;;;5.72;;
59976;SDS011;45837;51.076;3.578;2022-12-18T03:19:28;7.63;;;6.13;;
59976;SDS011;45837;51.076;3.578;2022-12-18T03:21:58;9.15;;;6.63;;
59976;SDS011;45837;51.076;3.578;2022-12-18T03:24:34;9.52;;;6.47;;
59976;SDS011;45837;51.076;3.578;2022-12-18T03:27:06;9.23;;;6.85;;
59976;SDS011;45837;51.076;3.578;2022-12-18T03:30:10;8.82;;;6.35;;
59976;SDS011;45837;51.076;3.578;2022-12-18T03:32:38;8.48;;;6.03;;
59976;SDS011;45837;51.076;3.578;2022-12-18T03:35:11;9.05;;;6.80;;
59976;SDS011;45837;51.076;3.578;2022-12-18T03:37:41;10.05;;;6.47;;
59976;SDS011;45837;51.076;3.578;2022-12-18T03:40:07;8.38;;;6.05;;
59976;SDS011;45837;51.076;3.578;2022-12-18T03:42:43;9.32;;;6.38;;
59976;SDS011;45837;51.076;3.578;2022-12-18T03:45:30;8.93;;;6.32;;
59976;SDS011;45837;51.076;3.578;2022-12-18T03:56:13;8.82;;;6.22;;
59976;SDS011;45837;51.076;3.578;2022-12-18T03:58:42;8.85;;;6.20;;
59976;SDS011;45837;51.076;3.578;2022-12-18T04:01:16;8.43;;;6.32;;
59976;SDS011;45837;51.076;3.578;2022-12-18T04:03:47;8.90;;;6.68;;
59976;SDS011;45837;51.076;3.578;2022-12-18T04:06:16;8.63;;;6.40;;
59976;SDS011;45837;51.076;3.578;2022-12-18T04:08:44;10.35;;;5.75;;
59976;SDS011;45837;51.076;3.578;2022-12-18T04:11:15;9.65;;;6.57;;
59976;SDS011;45837;51.076;3.578;2022-12-18T04:13:42;8.27;;;6.18;;
59976;SDS011;45837;51.076;3.578;2022-12-18T04:16:16;9.37;;;6.13;;
59976;SDS011;45837;51.076;3.578;2022-12-18T04:18:44;9.00;;;6.55;;
59976;SDS011;45837;51.076;3.578;2022-12-18T04:21:10;8.52;;;6.38;;
59976;SDS011;45837;51.076;3.578;2022-12-18T04:23:36;8.13;;;6.25;;
59976;SDS011;45837;51.076;3.578;2022-12-18T04:26:02;8.05;;;5.93;;
59976;SDS011;45837;51.076;3.578;2022-12-18T04:28:44;9.30;;;6.90;;
59976;SDS011;45837;51.076;3.578;2022-12-18T04:31:12;9.32;;;6.50;;
59976;SDS011;45837;51.076;3.578;2022-12-18T04:33:38;9.68;;;6.78;;
59976;SDS011;45837;51.076;3.578;2022-12-18T04:36:05;9.05;;;6.38;;
59976;SDS011;45837;51.076;3.578;2022-12-18T04:38:33;9.68;;;6.65;;
59976;SDS011;45837;51.076;3.578;2022-12-18T04:41:05;8.90;;;6.45;;
59976;SDS011;45837;51.076;3.578;2022-12-18T04:43:31;8.77;;;6.60;;
59976;SDS011;45837;51.076;3.578;2022-12-18T04:46:03;9.15;;;5.88;;
59976;SDS011;45837;51.076;3.578;2022-12-18T04:48:30;10.50;;;7.25;;
59976;SDS011;45837;51.076;3.578;2022-12-18T04:50:56;9.85;;;6.72;;
59976;SDS011;45837;51.076;3.578;2022-12-18T04:53:22;10.02;;;6.53;;
59976;SDS011;45837;51.076;3.578;2022-12-18T04:55:49;8.68;;;6.55;;
59976;SDS011;45837;51.076;3.578;2022-12-18T04:58:15;8.55;;;6.35;;
59976;SDS011;45837;51.076;3.578;2022-12-18T05:00:41;7.85;;;6.35;;
59976;SDS011;45837;51.076;3.578;2022-12-18T05:03:07;8.05;;;6.07;;
59976;SDS011;45837;51.076;3.578;2022-12-18T05:05:34;9.02;;;6.43;;
59976;SDS011;45837;51.076;3.578;2022-12-18T05:08:01;9.35;;;7.03;;
59976;SDS011;45837;51.076;3.578;2022-12-18T05:10:27;8.25;;;6.15;;
59976;SDS011;45837;51.076;3.578;2022-12-18T05:12:53;10.10;;;6.38;;
59976;SDS011;45837;51.076;3.578;2022-12-18T05:15:33;9.30;;;6.32;;
59976;SDS011;45837;51.076;3.578;2022-12-18T05:18:00;7.72;;;6.05;;
59976;SDS011;45837;51.076;3.578;2022-12-18T05:20:27;9.10;;;6.63;;
59976;SDS011;45837;51.076;3.578;2022-12-18T05:22:53;9.00;;;6.53;;
59976;SDS011;45837;51.076;3.578;2022-12-18T05:25:20;9.55;;;6.60;;
59976;SDS011;45837;51.076;3.578;2022-12-18T05:27:47;9.55;;;6.13;;
59976;SDS011;45837;51.076;3.578;2022-12-18T05:30:13;9.18;;;6.60;;
59976;SDS011;45837;51.076;3.578;2022-12-18T05:32:39;8.75;;;6.68;;
59976;SDS011;45837;51.076;3.578;2022-12-18T05:35:07;8.38;;;6.18;;
59976;SDS011;45837;51.076;3.578;2022-12-18T05:37:34;9.02;;;6.75;;
59976;SDS011;45837;51.076;3.578;2022-12-18T05:40:02;9.40;;;6.68;;
59976;SDS011;45837;51.076;3.578;2022-12-18T05:42:29;10.00;;;6.97;;
59976;SDS011;45837;51.076;3.578;2022-12-18T05:44:56;10.98;;;7.10;;
59976;SDS011;45837;51.076;3.578;2022-12-18T05:47:22;8.80;;;6.38;;
59976;SDS011;45837;51.076;3.578;2022-12-18T05:49:48;8.63;;;6.22;;
59976;SDS011;45837;51.076;3.578;2022-12-18T05:52:14;8.93;;;6.70;;
59976;SDS011;45837;51.076;3.578;2022-12-18T05:54:40;8.73;;;6.05;;
59976;SDS011;45837;51.076;3.578;2022-12-18T05:57:06;9.50;;;6.85;;
59976;SDS011;45837;51.076;3.578;2022-12-18T05:59:32;8.30;;;6.18;;
59976;SDS011;45837;51.076;3.578;2022-12-18T06:01:59;8.65;;;5.97;;
59976;SDS011;45837;51.076;3.578;2022-12-18T06:04:26;8.82;;;6.50;;
59976;SDS011;45837;51.076;3.578;2022-12-18T06:06:53;9.07;;;6.55;;
59976;SDS011;45837;51.076;3.578;2022-12-18T06:09:20;10.65;;;7.47;;
59976;SDS011;45837;51.076;3.578;2022-12-18T06:11:46;10.25;;;7.13;;
59976;SDS011;45837;51.076;3.578;2022-12-18T06:14:12;9.63;;;6.80;;
59976;SDS011;45837;51.076;3.578;2022-12-18T06:16:38;9.43;;;7.18;;
59976;SDS011;45837;51.076;3.578;2022-12-18T06:19:04;9.50;;;6.80;;
59976;SDS011;45837;51.076;3.578;2022-12-18T06:21:31;10.85;;;7.35;;
59976;SDS011;45837;51.076;3.578;2022-12-18T06:23:57;9.80;;;7.28;;
59976;SDS011;45837;51.076;3.578;2022-12-18T06:26:25;9.90;;;7.18;;
59976;SDS011;45837;51.076;3.578;2022-12-18T06:28:51;11.13;;;7.75;;
59976;SDS011;45837;51.076;3.578;2022-12-18T06:31:17;9.27;;;6.95;;
59976;SDS011;45837;51.076;3.578;2022-12-18T06:33:43;10.25;;;7.75;;
59976;SDS011;45837;51.076;3.578;2022-12-18T06:36:10;10.57;;;7.07;;
59976;SDS011;45837;51.076;3.578;2022-12-18T06:38:38;10.63;;;7.50;;
59976;SDS011;45837;51.076;3.578;2022-12-18T06:41:12;9.27;;;6.85;;
59976;SDS011;45837;51.076;3.578;2022-12-18T06:43:42;10.13;;;7.40;;
59976;SDS011;45837;51.076;3.578;2022-12-18T06:46:09;11.27;;;7.80;;
59976;SDS011;45837;51.076;3.578;2022-12-18T06:48:34;10.20;;;7.75;;
59976;SDS011;45837;51.076;3.578;2022-12-18T06:51:00;10.20;;;7.75;;
59976;SDS011;45837;51.076;3.578;2022-12-18T06:53:27;10.05;;;7.38;;
59976;SDS011;45837;51.076;3.578;2022-12-18T06:56:03;10.63;;;7.50;;
59976;SDS011;45837;51.076;3.578;2022-12-18T06:58:30;11.57;;;8.00;;
59976;SDS011;45837;51.076;3.578;2022-12-18T07:01:00;13.02;;;8.20;;
59976;SDS011;45837;51.076;3.578;2022-12-18T07:03:27;23.92;;;9.18;;
59976;SDS011;45837;51.076;3.578;2022-12-18T07:05:53;19.08;;;8.77;;
59976;SDS011;45837;51.076;3.578;2022-12-18T07:08:19;17.88;;;8.65;;
59976;SDS011;45837;51.076;3.578;2022-12-18T07:10:44;20.08;;;8.13;;
59976;SDS011;45837;51.076;3.578;2022-12-18T07:13:10;25.63;;;8.77;;
59976;SDS011;45837;51.076;3.578;2022-12-18T07:15:36;20.55;;;8.13;;
59976;SDS011;45837;51.076;3.578;2022-12-18T07:18:02;12.27;;;7.68;;
59976;SDS011;45837;51.076;3.578;2022-12-18T07:20:28;24.52;;;8.23;;
59976;SDS011;45837;51.076;3.578;2022-12-18T07:22:54;13.65;;;7.40;;
59976;SDS011;45837;51.076;3.578;2022-12-18T07:25:20;20.38;;;7.78;;
59976;SDS011;45837;51.076;3.578;2022-12-18T07:27:46;19.48;;;8.60;;
59976;SDS011;45837;51.076;3.578;2022-12-18T07:30:12;22.83;;;7.93;;
59976;SDS011;45837;51.076;3.578;2022-12-18T07:32:37;16.30;;;6.53;;
59976;SDS011;45837;51.076;3.578;2022-12-18T07:35:03;17.73;;;6.57;;
59976;SDS011;45837;51.076;3.578;2022-12-18T07:37:29;16.80;;;7.30;;
59976;SDS011;45837;51.076;3.578;2022-12-18T07:39:55;17.70;;;6.80;;
59976;SDS011;45837;51.076;3.578;2022-12-18T07:42:21;10.07;;;6.47;;
59976;SDS011;45837;51.076;3.578;2022-12-18T07:47:21;17.15;;;6.93;;
59976;SDS011;45837;51.076;3.578;2022-12-18T07:49:47;11.38;;;6.47;;
59976;SDS011;45837;51.076;3.578;2022-12-18T07:52:13;17.85;;;6.13;;
59976;SDS011;45837;51.076;3.578;2022-12-18T07:54:39;15.45;;;5.68;;
59976;SDS011;45837;51.076;3.578;2022-12-18T07:57:05;27.95;;;7.65;;
59976;SDS011;45837;51.076;3.578;2022-12-18T07:59:32;18.75;;;5.75;;
59976;SDS011;45837;51.076;3.578;2022-12-18T08:01:58;34.05;;;6.57;;
59976;SDS011;45837;51.076;3.578;2022-12-18T08:04:24;28.35;;;6.93;;
59976;SDS011;45837;51.076;3.578;2022-12-18T08:06:50;33.03;;;7.22;;
59976;SDS011;45837;51.076;3.578;2022-12-18T08:09:16;31.40;;;6.90;;
59976;SDS011;45837;51.076;3.578;2022-12-18T08:11:42;26.70;;;6.43;;
59976;SDS011;45837;51.076;3.578;2022-12-18T08:14:08;19.35;;;6.35;;
59976;SDS011;45837;51.076;3.578;2022-12-18T08:16:35;21.92;;;6.80;;
59976;SDS011;45837;51.076;3.578;2022-12-18T08:19:01;29.42;;;6.78;;
59976;SDS011;45837;51.076;3.578;2022-12-18T08:21:28;31.90;;;7.18;;
59976;SDS011;45837;51.076;3.578;2022-12-18T08:23:55;34.40;;;6.80;;
59976;SDS011;45837;51.076;3.578;2022-12-18T08:26:26;25.55;;;6.60;;
59976;SDS011;45837;51.076;3.578;2022-12-18T08:28:54;54.33;;;7.38;;
59976;SDS011;45837;51.076;3.578;2022-12-18T08:31:21;17.92;;;6.07;;
59976;SDS011;45837;51.076;3.578;2022-12-18T08:33:48;29.40;;;6.97;;
59976;SDS011;45837;51.076;3.578;2022-12-18T08:36:15;24.05;;;6.47;;
59976;SDS011;45837;51.076;3.578;2022-12-18T08:38:42;23.65;;;6.28;;
59976;SDS011;45837;51.076;3.578;2022-12-18T08:41:09;34.13;;;8.00;;
59976;SDS011;45837;51.076;3.578;2022-12-18T08:43:37;26.30;;;5.93;;
59976;SDS011;45837;51.076;3.578;2022-12-18T08:46:22;16.35;;;5.53;;
59976;SDS011;45837;51.076;3.578;2022-12-18T08:48:53;26.60;;;6.32;;
59976;SDS011;45837;51.076;3.578;2022-12-18T08:51:21;21.45;;;5.75;;
59976;SDS011;45837;51.076;3.578;2022-12-18T08:53:46;19.25;;;5.78;;
59976;SDS011;45837;51.076;3.578;2022-12-18T08:56:13;25.15;;;6.35;;
59976;SDS011;45837;51.076;3.578;2022-12-18T08:58:40;25.20;;;6.28;;
59976;SDS011;45837;51.076;3.578;2022-12-18T09:01:07;35.50;;;6.55;;
59976;SDS011;45837;51.076;3.578;2022-12-18T09:03:35;31.77;;;5.68;;
59976;SDS011;45837;51.076;3.578;2022-12-18T09:06:01;17.30;;;6.18;;
59976;SDS011;45837;51.076;3.578;2022-12-18T09:08:27;23.23;;;6.43;;
59976;SDS011;45837;51.076;3.578;2022-12-18T09:10:53;23.27;;;6.60;;
59976;SDS011;45837;51.076;3.578;2022-12-18T09:13:20;13.75;;;5.50;;
59976;SDS011;45837;51.076;3.578;2022-12-18T09:15:47;19.58;;;5.75;;
59976;SDS011;45837;51.076;3.578;2022-12-18T09:18:15;20.83;;;5.13;;
59976;SDS011;45837;51.076;3.578;2022-12-18T09:20:43;17.83;;;6.00;;
59976;SDS011;45837;51.076;3.578;2022-12-18T09:23:09;20.55;;;5.38;;
59976;SDS011;45837;51.076;3.578;2022-12-18T09:25:35;27.40;;;5.97;;
59976;SDS011;45837;51.076;3.578;2022-12-18T09:28:02;18.02;;;4.75;;
59976;SDS011;45837;51.076;3.578;2022-12-18T09:30:29;43.70;;;6.50;;
59976;SDS011;45837;51.076;3.578;2022-12-18T09:32:58;22.50;;;6.03;;
59976;SDS011;45837;51.076;3.578;2022-12-18T09:35:25;11.52;;;5.18;;
59976;SDS011;45837;51.076;3.578;2022-12-18T09:37:52;20.08;;;5.10;;
59976;SDS011;45837;51.076;3.578;2022-12-18T09:40:22;17.45;;;5.25;;
59976;SDS011;45837;51.076;3.578;2022-12-18T09:42:52;14.75;;;5.45;;
59976;SDS011;45837;51.076;3.578;2022-12-18T09:45:22;23.33;;;5.15;;
59976;SDS011;45837;51.076;3.578;2022-12-18T09:47:49;12.77;;;5.32;;
59976;SDS011;45837;51.076;3.578;2022-12-18T09:50:28;14.00;;;4.70;;
59976;SDS011;45837;51.076;3.578;2022-12-18T09:52:57;10.35;;;5.15;;
59976;SDS011;45837;51.076;3.578;2022-12-18T09:57:56;30.15;;;5.68;;
59976;SDS011;45837;51.076;3.578;2022-12-18T10:00:30;22.35;;;5.55;;
59976;SDS011;45837;51.076;3.578;2022-12-18T10:03:00;27.63;;;5.88;;
59976;SDS011;45837;51.076;3.578;2022-12-18T10:05:43;16.88;;;4.72;;
59976;SDS011;45837;51.076;3.578;2022-12-18T10:10:53;11.00;;;4.88;;
59976;SDS011;45837;51.076;3.578;2022-12-18T10:14:15;24.88;;;5.80;;
59976;SDS011;45837;51.076;3.578;2022-12-18T10:16:59;16.10;;;4.78;;
59976;SDS011;45837;51.076;3.578;2022-12-18T10:19:47;14.20;;;4.93;;
59976;SDS011;45837;51.076;3.578;2022-12-18T10:22:35;13.15;;;4.93;;
59976;SDS011;45837;51.076;3.578;2022-12-18T10:25:27;11.43;;;4.75;;
59976;SDS011;45837;51.076;3.578;2022-12-18T10:28:17;16.93;;;5.83;;
59976;SDS011;45837;51.076;3.578;2022-12-18T10:30:45;15.63;;;6.35;;
59976;SDS011;45837;51.076;3.578;2022-12-18T10:33:16;25.35;;;5.63;;
59976;SDS011;45837;51.076;3.578;2022-12-18T10:35:44;17.50;;;5.72;;
59976;SDS011;45837;51.076;3.578;2022-12-18T10:44:10;21.58;;;5.70;;
59976;SDS011;45837;51.076;3.578;2022-12-18T10:46:50;13.63;;;5.78;;
59976;SDS011;45837;51.076;3.578;2022-12-18T10:49:25;16.97;;;5.47;;
59976;SDS011;45837;51.076;3.578;2022-12-18T10:54:57;15.05;;;5.50;;
59976;SDS011;45837;51.076;3.578;2022-12-18T11:02:53;29.02;;;7.05;;
59976;SDS011;45837;51.076;3.578;2022-12-18T11:05:25;16.40;;;5.47;;
59976;SDS011;45837;51.076;3.578;2022-12-18T11:07:56;19.17;;;5.30;;
59976;SDS011;45837;51.076;3.578;2022-12-18T11:10:26;15.88;;;6.00;;
59976;SDS011;45837;51.076;3.578;2022-12-18T11:13:19;20.42;;;5.50;;
59976;SDS011;45837;51.076;3.578;2022-12-18T11:15:46;13.65;;;4.63;;
59976;SDS011;45837;51.076;3.578;2022-12-18T11:18:55;18.63;;;5.22;;
59976;SDS011;45837;51.076;3.578;2022-12-18T11:21:09;13.63;;;4.90;;
59976;SDS011;45837;51.076;3.578;2022-12-18T11:23:37;22.45;;;5.03;;
59976;SDS011;45837;51.076;3.578;2022-12-18T11:26:15;15.13;;;5.25;;
59976;SDS011;45837;51.076;3.578;2022-12-18T11:28:49;14.35;;;5.10;;
59976;SDS011;45837;51.076;3.578;2022-12-18T11:33:52;15.68;;;5.60;;
59976;SDS011;45837;51.076;3.578;2022-12-18T11:36:46;13.55;;;4.95;;
59976;SDS011;45837;51.076;3.578;2022-12-18T11:41:52;14.48;;;4.82;;
59976;SDS011;45837;51.076;3.578;2022-12-18T11:50:12;13.07;;;5.53;;
59976;SDS011;45837;51.076;3.578;2022-12-18T11:52:44;28.80;;;6.63;;
59976;SDS011;45837;51.076;3.578;2022-12-18T11:55:11;19.45;;;5.97;;
59976;SDS011;45837;51.076;3.578;2022-12-18T12:00:51;18.58;;;6.18;;
59976;SDS011;45837;51.076;3.578;2022-12-18T12:06:24;20.45;;;6.28;;
59976;SDS011;45837;51.076;3.578;2022-12-18T12:09:01;14.50;;;6.60;;
59976;SDS011;45837;51.076;3.578;2022-12-18T12:11:57;14.00;;;5.80;;
59976;SDS011;45837;51.076;3.578;2022-12-18T12:14:39;13.30;;;5.72;;
59976;SDS011;45837;51.076;3.578;2022-12-18T12:17:20;21.10;;;6.38;;
59976;SDS011;45837;51.076;3.578;2022-12-18T12:22:38;23.88;;;6.35;;
59976;SDS011;45837;51.076;3.578;2022-12-18T12:28:11;19.98;;;5.85;;
59976;SDS011;45837;51.076;3.578;2022-12-18T12:33:27;14.20;;;6.25;;
59976;SDS011;45837;51.076;3.578;2022-12-18T12:39:05;22.15;;;6.28;;
59976;SDS011;45837;51.076;3.578;2022-12-18T12:41:33;27.85;;;6.43;;
59976;SDS011;45837;51.076;3.578;2022-12-18T12:44:53;26.70;;;6.55;;
59976;SDS011;45837;51.076;3.578;2022-12-18T12:47:24;26.33;;;6.47;;
59976;SDS011;45837;51.076;3.578;2022-12-18T12:50:03;13.85;;;5.75;;
59976;SDS011;45837;51.076;3.578;2022-12-18T12:52:38;17.65;;;5.97;;
59976;SDS011;45837;51.076;3.578;2022-12-18T12:55:19;20.33;;;5.68;;
59976;SDS011;45837;51.076;3.578;2022-12-18T13:03:35;24.80;;;5.40;;
59976;SDS011;45837;51.076;3.578;2022-12-18T13:06:19;27.35;;;6.07;;
59976;SDS011;45837;51.076;3.578;2022-12-18T13:08:59;21.52;;;5.32;;
59976;SDS011;45837;51.076;3.578;2022-12-18T13:14:33;16.33;;;4.30;;
59976;SDS011;45837;51.076;3.578;2022-12-18T13:20:06;27.70;;;5.78;;
59976;SDS011;45837;51.076;3.578;2022-12-18T13:22:36;21.33;;;4.20;;
59976;SDS011;45837;51.076;3.578;2022-12-18T13:38:22;27.77;;;5.20;;
59976;SDS011;45837;51.076;3.578;2022-12-18T13:40:58;28.90;;;5.00;;
59976;SDS011;45837;51.076;3.578;2022-12-18T13:46:00;21.80;;;5.35;;
59976;SDS011;45837;51.076;3.578;2022-12-18T13:48:27;18.73;;;6.28;;
59976;SDS011;45837;51.076;3.578;2022-12-18T13:50:59;20.25;;;5.78;;
59976;SDS011;45837;51.076;3.578;2022-12-18T13:53:44;17.00;;;5.70;;
59976;SDS011;45837;51.076;3.578;2022-12-18T13:56:18;16.92;;;5.63;;
59976;SDS011;45837;51.076;3.578;2022-12-18T14:01:54;16.52;;;5.82;;
59976;SDS011;45837;51.076;3.578;2022-12-18T14:04:28;14.73;;;6.47;;
59976;SDS011;45837;51.076;3.578;2022-12-18T14:07:05;18.38;;;5.72;;
59976;SDS011;45837;51.076;3.578;2022-12-18T14:09:43;12.75;;;6.10;;
59976;SDS011;45837;51.076;3.578;2022-12-18T14:12:17;14.15;;;6.28;;
59976;SDS011;45837;51.076;3.578;2022-12-18T14:15:28;11.05;;;6.03;;
59976;SDS011;45837;51.076;3.578;2022-12-18T14:20:53;12.60;;;6.40;;
59976;SDS011;45837;51.076;3.578;2022-12-18T14:23:35;12.43;;;6.03;;
59976;SDS011;45837;51.076;3.578;2022-12-18T14:29:25;12.48;;;6.57;;
59976;SDS011;45837;51.076;3.578;2022-12-18T14:32:05;13.45;;;6.63;;
59976;SDS011;45837;51.076;3.578;2022-12-18T14:34:42;11.65;;;6.40;;
59976;SDS011;45837;51.076;3.578;2022-12-18T14:37:10;14.23;;;6.53;;
59976;SDS011;45837;51.076;3.578;2022-12-18T14:39:37;11.82;;;6.63;;
59976;SDS011;45837;51.076;3.578;2022-12-18T14:42:03;11.88;;;6.50;;
59976;SDS011;45837;51.076;3.578;2022-12-18T14:44:30;15.55;;;6.80;;
59976;SDS011;45837;51.076;3.578;2022-12-18T14:46:56;29.33;;;6.93;;
59976;SDS011;45837;51.076;3.578;2022-12-18T14:49:33;18.02;;;5.85;;
59976;SDS011;45837;51.076;3.578;2022-12-18T14:52:02;19.17;;;6.30;;
59976;SDS011;45837;51.076;3.578;2022-12-18T14:54:31;20.48;;;5.38;;
59976;SDS011;45837;51.076;3.578;2022-12-18T14:57:16;18.55;;;4.97;;
59976;SDS011;45837;51.076;3.578;2022-12-18T14:59:47;13.15;;;5.90;;
59976;SDS011;45837;51.076;3.578;2022-12-18T15:02:21;15.65;;;4.82;;
59976;SDS011;45837;51.076;3.578;2022-12-18T15:07:46;17.45;;;5.18;;
59976;SDS011;45837;51.076;3.578;2022-12-18T15:10:15;10.00;;;5.00;;
59976;SDS011;45837;51.076;3.578;2022-12-18T15:12:45;11.32;;;4.88;;
59976;SDS011;45837;51.076;3.578;2022-12-18T15:20:42;10.38;;;4.18;;
59976;SDS011;45837;51.076;3.578;2022-12-18T15:23:22;17.23;;;4.57;;
59976;SDS011;45837;51.076;3.578;2022-12-18T15:25:56;11.27;;;4.53;;
59976;SDS011;45837;51.076;3.578;2022-12-18T15:28:34;8.80;;;4.40;;
59976;SDS011;45837;51.076;3.578;2022-12-18T15:33:39;12.07;;;4.43;;
59976;SDS011;45837;51.076;3.578;2022-12-18T15:36:10;23.13;;;4.57;;
59976;SDS011;45837;51.076;3.578;2022-12-18T15:38:38;19.45;;;4.60;;
59976;SDS011;45837;51.076;3.578;2022-12-18T15:41:04;24.45;;;4.82;;
59976;SDS011;45837;51.076;3.578;2022-12-18T15:43:31;12.45;;;4.47;;
59976;SDS011;45837;51.076;3.578;2022-12-18T15:46:00;19.90;;;4.10;;
59976;SDS011;45837;51.076;3.578;2022-12-18T15:48:27;13.43;;;3.88;;
59976;SDS011;45837;51.076;3.578;2022-12-18T15:50:55;20.35;;;4.38;;
59976;SDS011;45837;51.076;3.578;2022-12-18T15:53:23;13.45;;;4.25;;
59976;SDS011;45837;51.076;3.578;2022-12-18T15:55:54;21.05;;;4.43;;
59976;SDS011;45837;51.076;3.578;2022-12-18T15:58:38;19.63;;;4.40;;
59976;SDS011;45837;51.076;3.578;2022-12-18T16:01:04;15.77;;;4.50;;
59976;SDS011;45837;51.076;3.578;2022-12-18T16:03:32;16.85;;;4.53;;
59976;SDS011;45837;51.076;3.578;2022-12-18T16:05:59;27.17;;;4.65;;
59976;SDS011;45837;51.076;3.578;2022-12-18T16:08:30;25.30;;;4.95;;
59976;SDS011;45837;51.076;3.578;2022-12-18T16:10:56;17.63;;;4.25;;
59976;SDS011;45837;51.076;3.578;2022-12-18T16:13:23;16.15;;;4.57;;
59976;SDS011;45837;51.076;3.578;2022-12-18T16:15:49;29.85;;;5.40;;
59976;SDS011;45837;51.076;3.578;2022-12-18T16:18:15;16.63;;;4.68;;
59976;SDS011;45837;51.076;3.578;2022-12-18T16:20:41;27.33;;;5.07;;
59976;SDS011;45837;51.076;3.578;2022-12-18T16:23:07;41.85;;;5.43;;
59976;SDS011;45837;51.076;3.578;2022-12-18T16:25:33;25.60;;;4.80;;
59976;SDS011;45837;51.076;3.578;2022-12-18T16:27:59;43.13;;;5.13;;
59976;SDS011;45837;51.076;3.578;2022-12-18T16:30:27;34.92;;;5.97;;
59976;SDS011;45837;51.076;3.578;2022-12-18T16:32:56;44.90;;;5.70;;
59976;SDS011;45837;51.076;3.578;2022-12-18T16:35:23;25.83;;;5.22;;
59976;SDS011;45837;51.076;3.578;2022-12-18T16:37:49;57.78;;;7.15;;
59976;SDS011;45837;51.076;3.578;2022-12-18T16:40:16;50.78;;;6.25;;
59976;SDS011;45837;51.076;3.578;2022-12-18T16:42:44;53.75;;;6.22;;
59976;SDS011;45837;51.076;3.578;2022-12-18T16:45:15;44.58;;;6.00;;
59976;SDS011;45837;51.076;3.578;2022-12-18T16:47:43;40.63;;;6.63;;
59976;SDS011;45837;51.076;3.578;2022-12-18T16:50:09;39.25;;;5.97;;
59976;SDS011;45837;51.076;3.578;2022-12-18T16:52:36;31.90;;;6.38;;
59976;SDS011;45837;51.076;3.578;2022-12-18T16:55:02;39.80;;;5.88;;
59976;SDS011;45837;51.076;3.578;2022-12-18T16:57:29;40.80;;;6.20;;
59976;SDS011;45837;51.076;3.578;2022-12-18T16:59:55;37.08;;;5.55;;
59976;SDS011;45837;51.076;3.578;2022-12-18T17:02:22;34.38;;;5.15;;
59976;SDS011;45837;51.076;3.578;2022-12-18T17:04:52;30.38;;;6.20;;
59976;SDS011;45837;51.076;3.578;2022-12-18T17:07:19;25.63;;;5.53;;
59976;SDS011;45837;51.076;3.578;2022-12-18T17:09:45;27.77;;;4.75;;
59976;SDS011;45837;51.076;3.578;2022-12-18T17:12:11;21.83;;;5.78;;
59976;SDS011;45837;51.076;3.578;2022-12-18T17:14:37;21.10;;;6.13;;
59976;SDS011;45837;51.076;3.578;2022-12-18T17:17:03;18.02;;;5.32;;